createdAt,value
2022-10-31T00:02:08.770Z,71.36
2022-10-31T00:04:40.133Z,71.34
2022-10-31T00:07:11.045Z,71.44
2022-10-31T00:09:41.901Z,71.44
2022-10-31T00:12:12.695Z,71.41
2022-10-31T00:14:43.631Z,71.28
2022-10-31T00:17:14.429Z,71.32
2022-10-31T00:19:45.262Z,71.55
2022-10-31T00:22:16.254Z,71.41
2022-10-31T00:24:47.242Z,71.41
2022-10-31T00:27:18.431Z,71.22
2022-10-31T00:29:50.539Z,71.15
2022-10-31T00:32:23.505Z,71.37
2022-10-31T00:34:54.339Z,71.46
2022-10-31T00:37:25.204Z,71.51
2022-10-31T00:39:55.953Z,71.69
2022-10-31T00:42:27.138Z,71.67
2022-10-31T00:44:57.954Z,71.60
2022-10-31T00:47:28.758Z,71.61
2022-10-31T00:49:59.619Z,71.58
2022-10-31T00:52:30.558Z,71.41
2022-10-31T00:55:01.980Z,71.28
2022-10-31T00:57:33.736Z,71.02
2022-10-31T01:00:04.962Z,71.28
2022-10-31T01:02:35.940Z,71.41
2022-10-31T01:05:07.509Z,71.60
2022-10-31T01:07:41.311Z,71.80
2022-10-31T01:10:14.055Z,71.72
2022-10-31T01:12:46.947Z,71.97
2022-10-31T01:15:20.901Z,71.70
2022-10-31T01:17:52.203Z,71.74
2022-10-31T01:20:23.178Z,71.71
2022-10-31T01:22:53.998Z,71.43
2022-10-31T01:25:27.809Z,71.53
2022-10-31T01:27:59.040Z,71.54
2022-10-31T01:30:30.809Z,71.59
2022-10-31T01:33:02.203Z,71.64
2022-10-31T01:35:33.803Z,71.75
2022-10-31T01:38:04.983Z,71.85
2022-10-31T01:40:35.921Z,71.88
2022-10-31T01:43:06.852Z,71.92
2022-10-31T01:45:38.103Z,71.92
2022-10-31T01:48:14.370Z,71.68
2022-10-31T01:50:49.995Z,71.93
2022-10-31T01:53:25.952Z,72.09
2022-10-31T01:55:58.159Z,71.74
2022-10-31T01:58:32.568Z,71.70
2022-10-31T02:01:08.074Z,72.06
2022-10-31T02:03:40.026Z,72.27
2022-10-31T02:06:19.221Z,72.54
2022-10-31T02:08:50.306Z,73.00
2022-10-31T02:11:21.198Z,73.33
2022-10-31T02:13:52.204Z,73.24
2022-10-31T02:16:23.074Z,73.32
2022-10-31T02:18:55.436Z,73.33
2022-10-31T02:21:33.587Z,73.63
2022-10-31T02:24:40.419Z,73.62
2022-10-31T02:27:20.149Z,73.72
2022-10-31T02:30:11.046Z,73.85
2022-10-31T02:33:00.789Z,73.95
2022-10-31T02:35:47.768Z,73.95
2022-10-31T02:38:29.279Z,73.85
2022-10-31T02:41:08.505Z,73.71
2022-10-31T02:43:58.323Z,73.84
2022-10-31T02:46:35.031Z,73.97
2022-10-31T02:49:13.051Z,73.91
2022-10-31T02:51:45.549Z,73.98
2022-10-31T02:54:28.671Z,73.78
2022-10-31T02:57:04.604Z,73.94
2022-10-31T02:59:39.174Z,74.02
2022-10-31T03:02:25.215Z,74.13
2022-10-31T03:05:24.342Z,74.25
2022-10-31T03:08:04.695Z,74.42
2022-10-31T03:10:43.560Z,74.28
2022-10-31T03:15:58.967Z,74.22
2022-10-31T03:18:34.362Z,74.29
2022-10-31T03:21:12.384Z,74.42
2022-10-31T03:23:45.319Z,74.51
2022-10-31T03:26:25.050Z,74.48
2022-10-31T03:28:59.510Z,74.53
2022-10-31T03:31:34.331Z,74.64
2022-10-31T03:34:07.189Z,74.53
2022-10-31T03:36:41.145Z,74.43
2022-10-31T03:39:15.813Z,73.95
2022-10-31T03:41:51.412Z,73.49
2022-10-31T03:44:23.365Z,73.24
2022-10-31T03:47:01.780Z,73.00
2022-10-31T03:49:34.239Z,73.03
2022-10-31T03:52:13.424Z,73.01
2022-10-31T03:54:47.071Z,72.83
2022-10-31T03:57:30.112Z,73.03
2022-10-31T04:00:06.339Z,73.36
2022-10-31T04:02:44.796Z,73.64
2022-10-31T04:05:20.210Z,73.68
2022-10-31T04:07:54.063Z,73.74
2022-10-31T04:10:31.810Z,73.96
2022-10-31T04:13:09.365Z,73.78
2022-10-31T04:15:50.381Z,74.00
2022-10-31T04:18:21.695Z,74.17
2022-10-31T04:21:01.373Z,74.26
2022-10-31T04:23:32.666Z,74.30
2022-10-31T04:26:04.755Z,74.31
2022-10-31T04:28:35.789Z,74.14
2022-10-31T04:31:07.353Z,74.04
2022-10-31T04:33:39.187Z,73.76
2022-10-31T04:36:10.949Z,73.60
2022-10-31T04:38:41.988Z,73.75
2022-10-31T04:41:30.478Z,73.84
2022-10-31T04:44:07.162Z,73.69
2022-10-31T04:46:38.001Z,73.62
2022-10-31T04:49:09.240Z,73.72
2022-10-31T04:51:40.295Z,73.47
2022-10-31T04:54:12.485Z,73.58
2022-10-31T04:57:06.380Z,73.55
2022-10-31T04:59:37.263Z,73.45
2022-10-31T05:02:08.231Z,73.37
2022-10-31T05:04:47.055Z,73.43
2022-10-31T05:07:17.944Z,73.60
2022-10-31T05:09:48.779Z,73.37
2022-10-31T05:12:19.609Z,73.50
2022-10-31T05:15:11.216Z,73.57
2022-10-31T05:18:01.567Z,73.72
2022-10-31T05:20:58.980Z,73.64
2022-10-31T05:23:40.334Z,73.68
2022-10-31T05:26:14.555Z,73.89
2022-10-31T05:28:45.646Z,74.03
2022-10-31T05:31:17.281Z,74.04
2022-10-31T05:33:48.563Z,74.24
2022-10-31T05:36:39.453Z,73.96
2022-10-31T05:39:20.063Z,73.99
2022-10-31T05:41:52.904Z,73.85
2022-10-31T05:44:29.609Z,73.64
2022-10-31T05:47:19.025Z,73.59
2022-10-31T05:50:16.051Z,73.34
2022-10-31T05:52:58.616Z,73.34
2022-10-31T05:55:34.948Z,73.38
2022-10-31T05:58:14.020Z,73.64
2022-10-31T06:00:49.027Z,73.76
2022-10-31T06:03:19.916Z,73.70
2022-10-31T06:06:11.654Z,73.78
2022-10-31T06:08:45.623Z,73.67
2022-10-31T06:11:19.517Z,73.63
2022-10-31T06:14:08.851Z,74.37
2022-10-31T06:16:49.461Z,74.84
2022-10-31T06:19:44.118Z,74.68
2022-10-31T06:22:16.559Z,74.41
2022-10-31T06:24:47.624Z,73.51
2022-10-31T06:27:31.241Z,73.14
2022-10-31T06:30:03.993Z,72.90
2022-10-31T06:32:36.445Z,72.10
2022-10-31T06:35:08.685Z,71.35
2022-10-31T06:37:44.370Z,70.85
2022-10-31T06:40:31.104Z,69.96
2022-10-31T06:43:22.709Z,69.06
2022-10-31T06:45:55.052Z,68.01
2022-10-31T06:48:29.683Z,66.96
2022-10-31T06:51:32.722Z,65.80
2022-10-31T06:54:03.904Z,64.60
2022-10-31T06:56:35.464Z,63.87
2022-10-31T06:59:07.939Z,63.54
2022-10-31T07:02:09.758Z,62.44
2022-10-31T07:04:41.891Z,61.77
2022-10-31T07:07:12.972Z,61.17
2022-10-31T07:09:43.808Z,60.76
2022-10-31T07:12:16.540Z,59.78
2022-10-31T07:14:52.430Z,58.86
2022-10-31T07:17:29.893Z,58.05
2022-10-31T07:20:04.643Z,57.46
2022-10-31T07:22:40.166Z,56.48
2022-10-31T07:25:13.873Z,55.12
2022-10-31T07:28:04.697Z,54.60
2022-10-31T07:30:43.708Z,53.71
2022-10-31T07:33:14.740Z,52.40
2022-10-31T07:36:17.992Z,51.67
2022-10-31T07:39:10.847Z,51.72
2022-10-31T07:42:03.452Z,50.59
2022-10-31T07:44:57.739Z,49.44
2022-10-31T07:48:19.119Z,48.52
2022-10-31T07:51:29.438Z,48.54
2022-10-31T07:54:39.958Z,48.35
2022-10-31T07:57:34.820Z,48.04
2022-10-31T08:00:29.739Z,47.10
2022-10-31T08:03:23.167Z,46.11
2022-10-31T08:06:28.092Z,45.79
2022-10-31T08:09:58.647Z,44.61
2022-10-31T08:13:02.940Z,44.04
2022-10-31T08:15:55.391Z,42.99
2022-10-31T08:18:49.591Z,42.51
2022-10-31T08:21:42.171Z,42.21
2022-10-31T08:24:37.112Z,41.43
2022-10-31T08:27:29.362Z,40.92
2022-10-31T08:30:23.629Z,40.70
2022-10-31T08:33:35.448Z,40.30
2022-10-31T08:36:44.388Z,39.59
2022-10-31T08:39:40.843Z,39.37
2022-10-31T08:42:37.980Z,38.71
2022-10-31T08:45:30.839Z,38.39
2022-10-31T08:48:23.157Z,37.94
2022-10-31T08:51:15.203Z,37.94
2022-10-31T08:53:48.790Z,37.66
2022-10-31T08:56:59.235Z,36.63
2022-10-31T09:00:11.448Z,36.97
2022-10-31T09:03:26.306Z,36.87
2022-10-31T09:06:18.103Z,36.60
2022-10-31T09:09:13.370Z,36.23
2022-10-31T09:12:05.739Z,36.74
2022-10-31T09:15:16.035Z,36.96
2022-10-31T09:18:37.300Z,36.31
2022-10-31T09:21:29.385Z,36.31
2022-10-31T09:24:24.357Z,36.23
2022-10-31T09:27:18.767Z,36.95
2022-10-31T09:30:14.214Z,36.91
2022-10-31T09:33:11.951Z,36.98
2022-10-31T09:36:06.672Z,37.35
2022-10-31T09:38:59.854Z,37.88
2022-10-31T09:42:04.497Z,38.38
2022-10-31T09:45:06.301Z,39.04
2022-10-31T09:48:26.857Z,39.64
2022-10-31T09:51:47.938Z,39.49
2022-10-31T09:54:55.688Z,40.36
2022-10-31T09:57:49.232Z,40.59
2022-10-31T10:00:42.237Z,40.57
2022-10-31T10:03:38.648Z,40.56
2022-10-31T10:06:45.639Z,41.03
2022-10-31T10:10:19.365Z,41.26
2022-10-31T10:13:54.386Z,41.41
2022-10-31T10:17:00.962Z,41.90
2022-10-31T10:20:20.962Z,42.30
2022-10-31T10:23:32.433Z,42.80
2022-10-31T10:29:41.867Z,43.29
2022-10-31T10:32:45.542Z,43.66
2022-10-31T10:35:42.399Z,43.64
2022-10-31T10:38:38.828Z,43.67
2022-10-31T10:41:35.040Z,43.89
2022-10-31T10:44:44.342Z,43.81
2022-10-31T10:47:43.712Z,44.28
2022-10-31T10:50:41.627Z,44.45
2022-10-31T10:54:03.161Z,44.89
2022-10-31T10:57:10.708Z,45.16
2022-10-31T11:00:13.389Z,45.43
2022-10-31T11:03:06.073Z,45.80
2022-10-31T11:06:02.880Z,46.32
2022-10-31T11:08:54.909Z,46.78
2022-10-31T11:12:02.931Z,47.14
2022-10-31T11:15:01.486Z,47.34
2022-10-31T11:17:58.465Z,47.92
2022-10-31T11:20:55.644Z,48.17
2022-10-31T11:23:47.823Z,48.53
2022-10-31T11:26:41.344Z,48.80
2022-10-31T11:29:34.458Z,49.19
2022-10-31T11:32:30.946Z,49.57
2022-10-31T11:35:24.972Z,50.25
2022-10-31T11:38:21.596Z,50.64
2022-10-31T11:41:19.340Z,50.96
2022-10-31T11:44:20.485Z,51.30
2022-10-31T11:47:19.956Z,51.47
2022-10-31T11:50:28.501Z,51.79
2022-10-31T11:53:22.938Z,52.03
2022-10-31T11:56:08.283Z,52.20
2022-10-31T11:58:39.862Z,52.66
2022-10-31T12:01:27.700Z,52.80
2022-10-31T12:04:09.140Z,53.13
2022-10-31T12:06:42.231Z,53.30
2022-10-31T12:09:25.000Z,53.40
2022-10-31T12:12:20.638Z,53.64
2022-10-31T12:15:07.299Z,53.91
2022-10-31T12:17:47.788Z,54.20
2022-10-31T12:20:28.096Z,54.34
2022-10-31T12:23:07.894Z,54.58
2022-10-31T12:25:51.582Z,54.61
2022-10-31T12:28:55.118Z,54.55
2022-10-31T12:31:45.993Z,54.79
2022-10-31T12:34:52.966Z,54.95
2022-10-31T12:38:06.510Z,55.08
2022-10-31T12:41:12.633Z,55.29
2022-10-31T12:44:13.344Z,55.45
2022-10-31T12:47:20.909Z,55.59
2022-10-31T12:50:29.990Z,55.89
2022-10-31T12:53:26.262Z,56.11
2022-10-31T12:56:10.607Z,56.11
2022-10-31T12:58:54.191Z,56.19
2022-10-31T13:01:45.385Z,56.43
2022-10-31T13:04:21.879Z,56.40
2022-10-31T13:06:57.503Z,56.65
2022-10-31T13:09:35.756Z,56.79
2022-10-31T13:12:12.899Z,56.95
2022-10-31T13:14:48.805Z,57.13
2022-10-31T13:17:28.435Z,57.23
2022-10-31T13:20:14.505Z,57.23
2022-10-31T13:22:49.686Z,57.25
2022-10-31T13:25:26.059Z,57.42
2022-10-31T13:28:01.748Z,57.60
2022-10-31T13:30:38.866Z,57.75
2022-10-31T13:33:19.839Z,57.81
2022-10-31T13:36:00.189Z,57.83
2022-10-31T13:38:39.314Z,57.92
2022-10-31T13:41:32.321Z,58.06
2022-10-31T13:44:08.535Z,58.27
2022-10-31T13:46:44.515Z,58.32
2022-10-31T13:49:42.876Z,58.46
2022-10-31T13:52:27.059Z,58.66
2022-10-31T13:54:58.202Z,58.71
2022-10-31T13:57:35.256Z,58.84
2022-10-31T14:00:24.051Z,59.02
2022-10-31T14:02:57.830Z,59.23
2022-10-31T14:05:32.357Z,59.41
2022-10-31T14:08:06.185Z,59.56
2022-10-31T14:10:40.186Z,59.73
2022-10-31T14:13:17.780Z,59.68
2022-10-31T14:16:01.003Z,59.62
2022-10-31T14:18:36.965Z,59.83
2022-10-31T14:21:29.402Z,59.86
2022-10-31T14:24:01.553Z,60.10
2022-10-31T14:26:38.393Z,60.23
2022-10-31T14:29:25.810Z,60.43
2022-10-31T14:32:00.618Z,60.56
2022-10-31T14:34:35.969Z,60.76
2022-10-31T14:37:20.675Z,60.78
2022-10-31T14:40:06.833Z,60.94
2022-10-31T14:42:54.941Z,61.09
2022-10-31T14:45:38.010Z,61.34
2022-10-31T14:48:29.081Z,61.62
2022-10-31T14:51:02.220Z,61.76
2022-10-31T14:53:36.698Z,61.93
2022-10-31T14:56:13.679Z,62.07
2022-10-31T14:58:47.952Z,62.36
2022-10-31T15:01:25.148Z,62.39
2022-10-31T15:06:55.019Z,62.72
2022-10-31T15:09:29.959Z,62.99
2022-10-31T15:12:00.445Z,63.09
2022-10-31T15:14:32.941Z,63.36
2022-10-31T15:17:07.166Z,63.52
2022-10-31T15:19:38.850Z,63.67
2022-10-31T15:22:16.472Z,63.82
2022-10-31T15:24:48.222Z,64.12
2022-10-31T15:27:20.608Z,64.20
2022-10-31T15:29:56.625Z,64.33
2022-10-31T15:32:28.931Z,64.54
2022-10-31T15:35:00.180Z,64.62
2022-10-31T15:37:31.421Z,64.84
2022-10-31T15:40:16.885Z,64.97
2022-10-31T15:42:52.912Z,65.17
2022-10-31T15:45:27.879Z,65.33
2022-10-31T15:48:01.882Z,65.48
2022-10-31T15:50:38.331Z,65.65
2022-10-31T15:53:16.672Z,65.77
2022-10-31T15:55:55.391Z,65.97
2022-10-31T15:58:28.094Z,66.06
2022-10-31T16:01:04.658Z,66.21
2022-10-31T16:03:37.342Z,66.19
2022-10-31T16:06:21.666Z,66.33
2022-10-31T16:08:53.474Z,66.56
2022-10-31T16:11:32.062Z,66.60
2022-10-31T16:14:07.009Z,66.77
2022-10-31T16:16:47.520Z,66.87
2022-10-31T16:19:22.902Z,66.93
2022-10-31T16:21:57.406Z,67.00
2022-10-31T16:24:31.728Z,67.08
2022-10-31T16:27:07.819Z,67.18
2022-10-31T16:29:44.483Z,67.49
2022-10-31T16:32:36.974Z,67.60
2022-10-31T16:35:30.393Z,67.84
2022-10-31T16:38:01.344Z,67.93
2022-10-31T16:40:33.100Z,68.05
2022-10-31T16:43:04.568Z,68.08
2022-10-31T16:45:37.129Z,68.26
2022-10-31T16:48:12.984Z,68.40
2022-10-31T16:50:47.406Z,68.41
2022-10-31T16:53:18.957Z,68.42
2022-10-31T16:55:56.437Z,68.46
2022-10-31T16:58:30.708Z,68.53
2022-10-31T17:01:02.384Z,68.64
2022-10-31T17:03:33.395Z,68.76
2022-10-31T17:06:04.524Z,69.01
2022-10-31T17:08:35.455Z,69.24
2022-10-31T17:11:07.154Z,69.29
2022-10-31T17:13:38.327Z,69.53
2022-10-31T17:16:09.925Z,69.75
2022-10-31T17:18:40.756Z,69.72
2022-10-31T17:21:20.582Z,69.79
2022-10-31T17:23:51.869Z,70.00
2022-10-31T17:26:23.246Z,70.02
2022-10-31T17:28:54.376Z,70.21
2022-10-31T17:31:29.457Z,70.24
2022-10-31T17:34:02.204Z,70.51
2022-10-31T17:36:35.545Z,70.63
2022-10-31T17:39:09.709Z,70.90
2022-10-31T17:41:40.701Z,70.93
2022-10-31T17:44:14.200Z,70.94
2022-10-31T17:46:45.162Z,71.06
2022-10-31T17:49:17.639Z,71.17
2022-10-31T17:51:49.994Z,71.13
2022-10-31T17:54:23.295Z,71.12
2022-10-31T17:56:55.780Z,71.26
2022-10-31T17:59:30.218Z,71.35
2022-10-31T18:02:02.056Z,71.36
2022-10-31T18:04:33.262Z,71.38
2022-10-31T18:07:05.057Z,71.38
2022-10-31T18:09:36.891Z,71.44
2022-10-31T18:12:08.576Z,71.42
2022-10-31T18:14:42.475Z,71.42
2022-10-31T18:17:16.104Z,71.53
2022-10-31T18:19:47.159Z,71.71
2022-10-31T18:22:18.279Z,71.59
2022-10-31T18:25:00.863Z,71.57
2022-10-31T18:27:32.914Z,71.67
2022-10-31T18:30:04.053Z,71.77
2022-10-31T18:32:36.505Z,71.73
2022-10-31T18:35:08.590Z,71.67
2022-10-31T18:37:40.025Z,71.87
2022-10-31T18:40:12.350Z,71.80
2022-10-31T18:42:43.462Z,71.79
2022-10-31T18:45:32.581Z,71.91
2022-10-31T18:48:06.098Z,71.96
2022-10-31T18:50:40.254Z,71.92
2022-10-31T18:53:11.337Z,72.01
2022-10-31T18:55:47.443Z,71.99
2022-10-31T18:58:23.257Z,71.82
2022-10-31T19:00:54.760Z,71.81
2022-10-31T19:03:26.994Z,71.61
2022-10-31T19:05:59.270Z,71.72
2022-10-31T19:08:30.748Z,71.85
2022-10-31T19:11:08.868Z,71.88
2022-10-31T19:13:41.671Z,72.03
2022-10-31T19:16:15.400Z,72.17
2022-10-31T19:18:47.871Z,72.31
2022-10-31T19:21:19.650Z,72.39
2022-10-31T19:23:52.882Z,72.35
2022-10-31T19:26:24.834Z,72.29
2022-10-31T19:28:56.593Z,72.25
2022-10-31T19:31:27.634Z,72.25
2022-10-31T19:33:58.840Z,72.35
2022-10-31T19:36:30.340Z,72.40
2022-10-31T19:39:01.767Z,72.52
2022-10-31T19:41:33.009Z,72.51
2022-10-31T19:44:04.059Z,72.60
2022-10-31T19:46:53.375Z,72.53
2022-10-31T19:49:24.711Z,72.58
2022-10-31T19:51:55.624Z,72.71
2022-10-31T19:54:26.633Z,72.73
2022-10-31T19:56:57.504Z,72.87
2022-10-31T19:59:28.649Z,72.94
2022-10-31T20:01:59.858Z,73.15
2022-10-31T20:04:33.704Z,73.18
2022-10-31T20:07:05.044Z,73.30
2022-10-31T20:09:36.907Z,73.42
2022-10-31T20:12:08.666Z,73.55
2022-10-31T20:14:39.922Z,73.60
2022-10-31T20:17:11.067Z,73.59
2022-10-31T20:19:43.422Z,73.60
2022-10-31T20:22:15.316Z,73.75
2022-10-31T20:24:46.340Z,73.80
2022-10-31T20:27:17.438Z,74.04
2022-10-31T20:29:49.653Z,74.04
2022-10-31T20:32:23.684Z,74.05
2022-10-31T20:34:54.639Z,74.18
2022-10-31T20:37:25.598Z,74.24
2022-10-31T20:39:56.809Z,74.27
2022-10-31T20:42:31.144Z,74.48
2022-10-31T20:45:02.608Z,74.42
2022-10-31T20:47:34.038Z,74.61
2022-10-31T20:50:09.508Z,74.63
2022-10-31T20:52:45.349Z,74.68
2022-10-31T20:55:17.842Z,74.65
2022-10-31T20:57:49.231Z,74.63
2022-10-31T21:00:21.651Z,74.67
2022-10-31T21:02:53.799Z,74.68
2022-10-31T21:05:28.389Z,74.72
2022-10-31T21:08:02.115Z,74.69
2022-10-31T21:10:36.758Z,74.75
2022-10-31T21:13:07.979Z,74.86
2022-10-31T21:15:39.229Z,74.93
2022-10-31T21:18:10.542Z,74.92
2022-10-31T21:20:47.173Z,74.95
2022-10-31T21:23:21.815Z,75.00
2022-10-31T21:25:54.473Z,74.96
2022-10-31T21:28:25.835Z,75.06
2022-10-31T21:30:57.682Z,75.02
2022-10-31T21:33:29.323Z,75.12
2022-10-31T21:36:00.276Z,75.15
2022-10-31T21:38:31.733Z,75.19
2022-10-31T21:41:04.230Z,75.04
2022-10-31T21:43:37.906Z,74.91
2022-10-31T21:46:10.869Z,75.09
2022-10-31T21:48:43.646Z,75.10
2022-10-31T21:51:16.613Z,75.11
2022-10-31T21:54:05.307Z,75.17
2022-10-31T21:56:36.868Z,75.16
2022-10-31T21:59:08.284Z,75.15
2022-10-31T22:01:39.897Z,75.14
2022-10-31T22:04:11.338Z,75.28
2022-10-31T22:06:42.541Z,75.23
2022-10-31T22:09:15.861Z,75.40
2022-10-31T22:11:47.368Z,75.34
2022-10-31T22:14:18.512Z,75.53
2022-10-31T22:16:49.570Z,75.51
2022-10-31T22:19:20.740Z,75.55
2022-10-31T22:21:51.817Z,75.52
2022-10-31T22:24:22.901Z,75.55
2022-10-31T22:26:53.797Z,75.61
2022-10-31T22:29:24.729Z,75.58
2022-10-31T22:31:59.629Z,75.60
2022-10-31T22:34:32.599Z,75.55
2022-10-31T22:37:03.526Z,75.68
2022-10-31T22:39:34.620Z,75.62
2022-10-31T22:42:05.718Z,75.75
2022-10-31T22:44:36.577Z,75.77
2022-10-31T22:47:07.611Z,75.75
2022-10-31T22:49:38.663Z,75.64
2022-10-31T22:52:09.987Z,75.66
2022-10-31T22:54:41.058Z,75.58
2022-10-31T22:57:12.400Z,75.61
2022-10-31T22:59:43.602Z,75.60
2022-10-31T23:02:14.706Z,75.53
2022-10-31T23:04:45.812Z,75.49
2022-10-31T23:07:21.611Z,75.78
2022-10-31T23:09:56.701Z,75.94
2022-10-31T23:12:50.457Z,75.99
2022-10-31T23:15:21.409Z,76.02
2022-10-31T23:17:52.568Z,76.04
2022-10-31T23:20:23.755Z,76.07
2022-10-31T23:22:54.795Z,76.07
2022-10-31T23:25:43.626Z,76.12
2022-10-31T23:28:14.571Z,76.10
2022-10-31T23:30:48.001Z,76.07
2022-10-31T23:33:18.926Z,76.01
2022-10-31T23:35:50.084Z,76.02
2022-10-31T23:38:21.369Z,75.99
2022-10-31T23:40:52.393Z,76.00
2022-10-31T23:43:23.252Z,76.11
2022-10-31T23:45:54.397Z,76.06
2022-10-31T23:48:25.189Z,75.97
2022-10-31T23:50:56.299Z,76.00
2022-10-31T23:53:27.594Z,75.93
2022-10-31T23:55:58.781Z,75.92
2022-10-31T23:58:29.589Z,75.92
